NCAR-RAP Real-Time Weather Data

Output produced by METARs form (08 May 2021  17:19 UTC)
found at http://weather.rap.ucar.edu/surface/
 
KECP 081653Z 00000KT 10SM CLR 24/06 A3014 RMK AO2 SLP217 T02440056
KECP 081553Z 00000KT 10SM CLR 23/06 A3015 RMK AO2 SLP222 T02280061
KECP 081453Z VRB04KT 10SM CLR 22/06 A3016 RMK AO2 SLP225 T02220061 51014
KECP 081353Z 10005KT 10SM CLR 19/08 A3015 RMK AO2 SLP222 T01940078
KECP 081253Z 00000KT 10SM CLR 16/08 A3015 RMK AO2 SLP220 T01610083
KECP 081153Z 00000KT 10SM CLR 12/11 A3012 RMK AO2 SLP211 T01170106 10122 20094 50009
KECP 081053Z 00000KT 10SM CLR 10/09 A3012 RMK AO2 SLP212 T01000089
KECP 080953Z AUTO 00000KT 10SM CLR 10/09 A3010 RMK AO2 SLP205 T01000089
KECP 080853Z AUTO 32004KT 10SM CLR 11/09 A3009 RMK AO2 SLP202 T01060089 55004
KECP 080753Z AUTO 00000KT 10SM CLR 11/09 A3009 RMK AO2 SLP199 T01060094
KECP 080653Z AUTO 00000KT 10SM CLR 12/10 A3009 RMK AO2 SLP202 T01170100
KECP 080553Z AUTO 32003KT 10SM CLR 12/11 A3011 RMK AO2 SLP206 T01220106 10233 20122 53006
KECP 080453Z AUTO 36003KT 10SM CLR 14/11 A3010 RMK AO2 SLP203 T01390106 402670111
KECP 080353Z AUTO 00000KT 10SM CLR 14/11 A3009 RMK AO2 SLP202 T01440111
KECP 080254Z AUTO 33003KT 10SM CLR 15/12 A3009 RMK AO2 T01500117
KECP 080253Z 33003KT 10SM CLR 16/11 A3009 RMK AO2 SLP199 T01560111 53018
KECP 080153Z 35003KT 10SM CLR 17/11 A3006 RMK AO2 SLP191 T01720111